Time;durP1;ratioP1;P1;durP2;ratioP2;P2;SDS_P1;SDS_P2;PMS_P1;PMS_P2;Temp;Humidity;BMP_temperature;BMP_pressure;BME280_temperature;BME280_humidity;BME280_pressure;Samples;Min_cycle;Max_cycle;Signal;HPM_P1;HPM_P2
2023/08/14 00:01:03;;;;;;;15.05;8.65;;;;;;;-145.33;100.00;60416.63;5007903;28;20464;-24
2023/08/14 00:03:29;;;;;;;21.23;11.68;;;;;;;-145.33;100.00;60416.63;5007866;28;20112;-24
2023/08/14 00:05:54;;;;;;;22.58;13.63;;;;;;;-145.33;100.00;60416.63;5007783;28;20142;-24
2023/08/14 00:08:19;;;;;;;17.67;10.82;;;;;;;-145.33;100.00;60416.63;5007710;28;20413;-24
2023/08/14 00:10:45;;;;;;;10.43;5.55;;;;;;;-145.33;100.00;60416.63;5007578;28;20494;-25
2023/08/14 00:13:11;;;;;;;7.38;4.93;;;;;;;-145.33;100.00;60416.63;5007754;28;20065;-24
2023/08/14 00:15:37;;;;;;;6.57;3.75;;;;;;;-145.33;100.00;60416.63;5007508;28;20038;-27
2023/08/14 00:18:04;;;;;;;6.38;3.60;;;;;;;-145.33;100.00;60416.63;5007490;28;20030;-23
2023/08/14 00:20:29;;;;;;;4.85;3.78;;;;;;;-145.33;100.00;60416.63;5007535;28;20064;-23
2023/08/14 00:22:55;;;;;;;5.13;3.42;;;;;;;-145.33;100.00;60416.63;5007673;28;20021;-23
2023/08/14 00:25:21;;;;;;;6.63;3.97;;;;;;;-145.33;100.00;60416.63;5007523;28;20450;-23
2023/08/14 00:27:47;;;;;;;6.25;3.78;;;;;;;-145.33;100.00;60416.63;5007363;28;20033;-24
2023/08/14 00:30:12;;;;;;;5.78;3.63;;;;;;;-145.33;100.00;60416.63;5006940;28;20018;-23
2023/08/14 00:32:38;;;;;;;6.18;3.65;;;;;;;-145.33;100.00;60416.63;5007589;28;20447;-24
2023/08/14 00:35:04;;;;;;;7.32;4.00;;;;;;;-145.33;100.00;60416.63;5006926;28;20041;-23
2023/08/14 00:37:44;;;;;;;5.75;3.78;;;;;;;-145.33;100.00;60416.63;5007331;28;20035;-24
2023/08/14 00:40:10;;;;;;;9.45;4.95;;;;;;;-145.33;100.00;60416.63;5007099;28;20421;-26
2023/08/14 00:42:42;;;;;;;9.05;5.63;;;;;;;-145.33;100.00;60416.63;5007233;28;20038;-24
2023/08/14 00:45:09;;;;;;;8.02;5.80;;;;;;;-145.33;100.00;60416.63;5007012;28;20030;-24
2023/08/14 00:47:36;;;;;;;11.50;6.72;;;;;;;-145.33;100.00;60416.63;5007251;28;20040;-24
2023/08/14 00:50:03;;;;;;;11.30;7.68;;;;;;;-145.33;100.00;60416.63;5006768;28;20034;-23
2023/08/14 00:52:31;;;;;;;9.60;6.82;;;;;;;-145.33;100.00;60416.63;5006853;28;20045;-24
2023/08/14 00:55:07;;;;;;;11.93;7.60;;;;;;;-145.33;100.00;60416.63;5006646;28;20648;-26
2023/08/14 00:57:35;;;;;;;13.38;8.73;;;;;;;-145.33;100.00;60416.63;5006659;28;20054;-23
2023/08/14 01:00:05;;;;;;;15.13;9.07;;;;;;;-145.33;100.00;60416.63;5006619;28;20112;-24
2023/08/14 01:02:32;;;;;;;14.05;9.55;;;;;;;-145.33;100.00;60416.63;5006539;28;20026;-23
2023/08/14 01:04:57;;;;;;;14.48;8.82;;;;;;;-145.33;100.00;60416.63;5006487;28;20037;-24
2023/08/14 01:07:24;;;;;;;13.30;9.38;;;;;;;-145.33;100.00;60416.63;5006344;28;20042;-27
2023/08/14 01:09:50;;;;;;;17.15;10.48;;;;;;;-145.33;100.00;60416.63;5006603;28;20058;-24
2023/08/14 01:12:25;;;;;;;19.55;12.18;;;;;;;-145.33;100.00;60416.63;5006258;28;20022;-29
2023/08/14 01:14:58;;;;;;;17.35;11.63;;;;;;;-145.33;100.00;60416.63;5006152;28;20052;-25
2023/08/14 01:17:26;;;;;;;22.40;12.57;;;;;;;-145.33;100.00;60416.63;5006145;28;20121;-23
2023/08/14 01:19:54;;;;;;;21.40;11.95;;;;;;;-145.33;100.00;60416.63;5006526;28;20053;-23
2023/08/14 01:23:02;;;;;;;22.98;12.98;;;;;;;-145.33;100.00;60416.63;5006128;28;20018;-24
2023/08/14 01:25:34;;;;;;;;;;;;;;;-145.33;100.00;60416.63;5007010;28;20032;-24
2023/08/14 01:28:01;;;;;;;24.40;14.63;;;;;;;-145.33;100.00;60416.63;5006155;28;19918;-23
2023/08/14 01:30:26;;;;;;;22.00;13.00;;;;;;;-145.33;100.00;60416.63;5005695;28;20563;-27
2023/08/14 01:32:52;;;;;;;20.35;12.75;;;;;;;-145.33;100.00;60416.63;5006028;28;20030;-24
2023/08/14 01:35:20;;;;;;;21.10;12.70;;;;;;;-145.33;100.00;60416.63;5006107;28;20120;-24
2023/08/14 01:37:50;;;;;;;24.05;13.07;;;;;;;-145.33;100.00;60416.63;5005994;28;20106;-27
2023/08/14 01:40:36;;;;;;;20.80;12.65;;;;;;;-145.33;100.00;60416.63;5006151;28;20044;-24
2023/08/14 01:43:10;;;;;;;11.50;6.85;;;;;;;-145.33;100.00;60416.63;5005925;28;20157;-24
2023/08/14 01:45:36;;;;;;;44.47;22.52;;;;;;;-145.33;100.00;60416.63;5005996;28;20030;-30
2023/08/14 01:48:06;;;;;;;34.22;18.45;;;;;;;-145.33;100.00;60416.63;5005729;28;20025;-24
2023/08/14 01:50:38;;;;;;;50.63;25.48;;;;;;;-145.33;100.00;60416.63;5005891;28;20038;-24
2023/08/14 01:53:04;;;;;;;30.25;16.52;;;;;;;-145.33;100.00;60416.63;5005850;28;20030;-24
2023/08/14 01:55:29;;;;;;;20.20;12.55;;;;;;;-145.33;100.00;60416.63;5005722;28;20026;-23
2023/08/14 01:57:55;;;;;;;20.67;12.80;;;;;;;-145.33;100.00;60416.63;5005542;28;20036;-25
2023/08/14 02:00:20;;;;;;;21.20;12.55;;;;;;;-145.33;100.00;60416.63;5005109;28;20583;-23
2023/08/14 02:02:47;;;;;;;18.23;12.68;;;;;;;-145.33;100.00;60416.63;5006022;28;20548;-24
2023/08/14 02:05:12;;;;;;;17.83;11.65;;;;;;;-145.33;100.00;60416.63;5005845;28;20030;-24
2023/08/14 02:07:38;;;;;;;18.80;11.43;;;;;;;-145.33;100.00;60416.63;5005452;28;20100;-23
2023/08/14 02:10:04;;;;;;;18.38;11.90;;;;;;;-145.33;100.00;60416.63;5005527;28;20524;-24
2023/08/14 02:12:30;;;;;;;17.40;11.35;;;;;;;-145.33;100.00;60416.63;5005199;28;20041;-23
2023/08/14 02:14:56;;;;;;;17.30;10.73;;;;;;;-145.33;100.00;60416.63;5005769;28;20030;-23
2023/08/14 02:17:22;;;;;;;17.05;11.45;;;;;;;-145.33;100.00;60416.63;5005416;28;20030;-24
2023/08/14 02:19:48;;;;;;;15.23;9.55;;;;;;;-145.33;100.00;60416.63;5005420;28;20028;-23
2023/08/14 02:22:13;;;;;;;12.95;9.52;;;;;;;-145.33;100.00;60416.63;5005616;28;20030;-24
2023/08/14 02:24:39;;;;;;;14.10;9.05;;;;;;;-145.33;100.00;60416.63;5005015;28;20485;-24
2023/08/14 02:27:07;;;;;;;12.50;7.95;;;;;;;-145.33;100.00;60416.63;5020801;28;20424;-23
2023/08/14 02:29:32;;;;;;;26.38;14.25;;;;;;;-145.33;100.00;60416.63;5005620;28;20030;-24
2023/08/14 02:31:57;;;;;;;17.27;11.32;;;;;;;-145.33;100.00;60416.63;5005688;28;20037;-25
2023/08/14 02:34:42;;;;;;;101.97;48.90;;;;;;;-145.33;100.00;60416.63;5005447;28;20057;-24
2023/08/14 02:37:08;;;;;;;82.22;42.85;;;;;;;-145.33;100.00;60416.63;5005495;28;20068;-24
2023/08/14 02:39:34;;;;;;;99.80;48.45;;;;;;;-145.33;100.00;60416.63;5005878;28;20052;-24
2023/08/14 02:41:59;;;;;;;81.95;39.33;;;;;;;-145.33;100.00;60416.63;5005741;28;20030;-24
2023/08/14 02:44:24;;;;;;;101.25;46.08;;;;;;;-145.33;100.00;60416.63;4994532;28;20410;-23
2023/08/14 02:46:50;;;;;;;80.45;40.40;;;;;;;-145.33;100.00;60416.63;4985884;28;20023;-23
2023/08/14 02:49:15;;;;;;;81.63;39.00;;;;;;;-145.33;100.00;60416.63;4985669;28;20038;-24
2023/08/14 02:51:41;;;;;;;69.88;34.28;;;;;;;-145.33;100.00;60416.63;4986003;28;20506;-29
2023/08/14 02:54:06;;;;;;;48.47;24.35;;;;;;;-145.33;100.00;60416.63;4985902;28;20121;-23
2023/08/14 02:56:32;;;;;;;45.50;22.50;;;;;;;-145.33;100.00;60416.63;4985456;28;20026;-23
2023/08/14 02:58:57;;;;;;;45.17;22.30;;;;;;;-145.33;100.00;60416.63;4968383;28;20038;-23
2023/08/14 03:01:22;;;;;;;53.78;26.15;;;;;;;-145.33;100.00;60416.63;4985470;28;20038;-23
2023/08/14 03:03:48;;;;;;;41.67;18.38;;;;;;;-145.33;100.00;60416.63;4985703;28;20033;-25
2023/08/14 03:06:13;;;;;;;26.05;14.05;;;;;;;-145.33;100.00;60416.63;4985627;28;20054;-23
2023/08/14 03:08:39;;;;;;;19.30;9.93;;;;;;;-145.33;100.00;60416.63;4985678;28;20107;-24
2023/08/14 03:11:04;;;;;;;14.70;9.50;;;;;;;-145.33;100.00;60416.63;4985798;28;20105;-24
2023/08/14 03:13:29;;;;;;;15.93;9.23;;;;;;;-145.33;100.00;60416.63;4988813;28;20477;-24
2023/08/14 03:15:55;;;;;;;18.23;10.07;;;;;;;-145.33;100.00;60416.63;4989020;28;20442;-23
2023/08/14 03:18:21;;;;;;;20.02;11.27;;;;;;;-145.33;100.00;60416.63;4988828;28;20121;-25
2023/08/14 03:20:46;;;;;;;36.00;16.67;;;;;;;-145.33;100.00;60416.63;4988768;28;20036;-24
2023/08/14 03:23:11;;;;;;;32.15;17.88;;;;;;;-145.33;100.00;60416.63;4989181;28;20121;-28
2023/08/14 03:25:37;;;;;;;33.75;19.27;;;;;;;-145.33;100.00;60416.63;4989133;28;20026;-24
2023/08/14 03:28:03;;;;;;;54.05;25.17;;;;;;;-145.33;100.00;60416.63;4988732;28;20037;-23
2023/08/14 03:30:30;;;;;;;39.13;18.30;;;;;;;-145.33;100.00;60416.63;4988916;28;20034;-24
2023/08/14 03:32:56;;;;;;;31.25;17.23;;;;;;;-145.33;100.00;60416.63;4988612;28;20517;-26
2023/08/14 03:35:21;;;;;;;23.55;14.13;;;;;;;-145.33;100.00;60416.63;4988692;28;20035;-23
2023/08/14 03:37:47;;;;;;;38.22;19.13;;;;;;;-145.33;100.00;60416.63;4988829;28;20042;-24
2023/08/14 03:40:13;;;;;;;50.58;22.08;;;;;;;-145.33;100.00;60416.63;4988674;28;20035;-26
2023/08/14 03:42:38;;;;;;;38.78;19.25;;;;;;;-145.33;100.00;60416.63;4988536;28;20421;-24
2023/08/14 03:45:04;;;;;;;28.55;15.75;;;;;;;-145.33;100.00;60416.63;4988418;28;20157;-26
2023/08/14 03:47:29;;;;;;;28.45;15.20;;;;;;;-145.33;100.00;60416.63;4988607;28;20034;-24
2023/08/14 03:49:55;;;;;;;19.17;11.55;;;;;;;-145.33;100.00;60416.63;4988653;28;20033;-23
2023/08/14 03:52:20;;;;;;;18.92;10.10;;;;;;;-145.33;100.00;60416.63;4988426;28;20041;-28
2023/08/14 03:54:48;;;;;;;17.67;9.52;;;;;;;-145.33;100.00;60416.63;4988639;28;20398;-23
2023/08/14 03:57:13;;;;;;;20.05;11.15;;;;;;;-145.33;100.00;60416.63;4987895;28;20030;-23
2023/08/14 03:59:39;;;;;;;21.85;11.13;;;;;;;-145.33;100.00;60416.63;4988779;28;20022;-25
2023/08/14 04:02:04;;;;;;;24.15;11.63;;;;;;;-145.33;100.00;60416.63;4988397;28;20023;-23
2023/08/14 04:04:30;;;;;;;21.67;13.80;;;;;;;-145.33;100.00;60416.63;4988156;28;20069;-23
2023/08/14 04:06:55;;;;;;;30.00;17.10;;;;;;;-145.33;100.00;60416.63;4988478;28;20039;-26
2023/08/14 04:09:20;;;;;;;41.75;20.50;;;;;;;-145.33;100.00;60416.63;4987965;28;20433;-23
2023/08/14 04:11:46;;;;;;;39.72;22.25;;;;;;;-145.33;100.00;60416.63;4988466;28;20553;-23
2023/08/14 04:14:11;;;;;;;39.25;20.63;;;;;;;-145.33;100.00;60416.63;4988203;28;20093;-24
2023/08/14 04:16:43;;;;;;;36.20;20.40;;;;;;;-145.33;100.00;60416.63;4988211;28;20060;-23
2023/08/14 04:19:18;;;;;;;20.85;13.18;;;;;;;-145.33;100.00;60416.63;4987979;28;20112;-23
2023/08/14 04:21:44;;;;;;;19.88;12.10;;;;;;;-145.33;100.00;60416.63;4987743;28;20041;-24
2023/08/14 04:24:10;;;;;;;26.98;12.32;;;;;;;-145.33;100.00;60416.63;4987734;28;20031;-23
2023/08/14 04:26:39;;;;;;;17.85;11.20;;;;;;;-145.33;100.00;60416.63;4987781;28;20500;-27
2023/08/14 04:29:08;;;;;;;22.20;10.52;;;;;;;-145.33;100.00;60416.63;4987724;28;20033;-22
2023/08/14 04:31:35;;;;;;;16.33;9.50;;;;;;;-145.33;100.00;60416.63;4987992;28;20152;-24
2023/08/14 04:34:01;;;;;;;17.05;9.25;;;;;;;-145.33;100.00;60416.63;4987483;28;20035;-24
2023/08/14 04:36:26;;;;;;;13.73;9.68;;;;;;;-145.33;100.00;60416.63;4987757;28;20022;-24
2023/08/14 04:38:52;;;;;;;13.82;9.52;;;;;;;-145.33;100.00;60416.63;4987893;28;20038;-26
2023/08/14 04:41:17;;;;;;;13.35;9.07;;;;;;;-145.33;100.00;60416.63;4987365;28;20057;-23
2023/08/14 04:43:42;;;;;;;13.73;8.77;;;;;;;-145.33;100.00;60416.63;4988129;28;20464;-24
2023/08/14 04:46:11;;;;;;;14.90;8.90;;;;;;;-145.33;100.00;60416.63;4987477;28;20050;-23
2023/08/14 04:48:37;;;;;;;12.38;8.70;;;;;;;-145.33;100.00;60416.63;4987771;28;20026;-24
2023/08/14 04:51:04;;;;;;;13.35;8.77;;;;;;;-145.33;100.00;60416.63;4987102;28;20820;-23
2023/08/14 04:53:30;;;;;;;15.02;8.98;;;;;;;-145.33;100.00;60416.63;4987284;28;20031;-25
2023/08/14 04:55:55;;;;;;;19.63;10.30;;;;;;;-145.33;100.00;60416.63;4987285;28;20120;-23
2023/08/14 04:58:23;;;;;;;28.48;15.25;;;;;;;-145.33;100.00;60416.63;4987191;28;20053;-25
2023/08/14 05:00:48;;;;;;;;;;;;;;;-145.33;100.00;60416.63;4987864;28;20053;-24
2023/08/14 05:03:14;;;;;;;14.85;9.00;;;;;;;-145.33;100.00;60416.63;4987004;28;20431;-25
2023/08/14 05:05:39;;;;;;;13.10;8.32;;;;;;;-145.33;100.00;60416.63;4987236;28;20026;-24
2023/08/14 05:08:05;;;;;;;11.88;8.75;;;;;;;-145.33;100.00;60416.63;4974839;28;20073;-25
2023/08/14 05:10:32;;;;;;;15.75;9.95;;;;;;;-145.33;100.00;60416.63;4967393;28;20034;-24
2023/08/14 05:12:58;;;;;;;14.77;9.43;;;;;;;-145.33;100.00;60416.63;4967482;28;20031;-24
2023/08/14 05:15:23;;;;;;;17.65;10.00;;;;;;;-145.33;100.00;60416.63;4967202;28;20415;-24
2023/08/14 05:17:49;;;;;;;18.80;11.25;;;;;;;-145.33;100.00;60416.63;4967496;28;20101;-23
2023/08/14 05:20:14;;;;;;;15.02;8.45;;;;;;;-145.33;100.00;60416.63;4967539;28;20039;-23
2023/08/14 05:22:40;;;;;;;11.55;7.60;;;;;;;-145.33;100.00;60416.63;4967268;28;20027;-24
2023/08/14 05:25:06;;;;;;;10.85;6.93;;;;;;;-145.33;100.00;60416.63;4966885;28;20038;-24
2023/08/14 05:27:36;;;;;;;12.30;7.63;;;;;;;-145.33;100.00;60416.63;4967271;28;20109;-23
2023/08/14 05:30:03;;;;;;;11.85;7.70;;;;;;;-145.33;100.00;60416.63;4966827;28;20037;-25
2023/08/14 05:32:28;;;;;;;12.88;7.78;;;;;;;-145.33;100.00;60416.63;4967556;28;20489;-23
2023/08/14 05:34:54;;;;;;;11.10;7.45;;;;;;;-145.33;100.00;60416.63;4966513;28;20577;-24
2023/08/14 05:37:19;;;;;;;13.15;8.02;;;;;;;-145.33;100.00;60416.63;4966835;28;20030;-24
2023/08/14 05:39:45;;;;;;;11.95;8.20;;;;;;;-145.33;100.00;60416.63;4967082;28;20492;-25
2023/08/14 05:42:10;;;;;;;13.68;7.25;;;;;;;-145.33;100.00;60416.63;4966908;28;20027;-23
2023/08/14 05:44:35;;;;;;;12.88;7.18;;;;;;;-145.33;100.00;60416.63;4967266;28;20029;-25
2023/08/14 05:47:01;;;;;;;10.95;6.90;;;;;;;-145.33;100.00;60416.63;4966990;28;20037;-24
2023/08/14 05:49:27;;;;;;;11.32;6.55;;;;;;;-145.33;100.00;60416.63;4966859;28;20089;-25
2023/08/14 05:51:52;;;;;;;11.80;7.07;;;;;;;-145.33;100.00;60416.63;4966844;28;20488;-24
2023/08/14 05:54:18;;;;;;;10.35;7.10;;;;;;;-145.33;100.00;60416.63;4966548;28;20031;-25
2023/08/14 05:56:45;;;;;;;8.45;6.15;;;;;;;-145.33;100.00;60416.63;4966784;28;20035;-29
2023/08/14 05:59:10;;;;;;;10.27;7.00;;;;;;;-145.33;100.00;60416.63;4966965;28;20680;-23
2023/08/14 06:01:36;;;;;;;13.10;6.80;;;;;;;-145.33;100.00;60416.63;4966402;28;20289;-23
2023/08/14 06:04:04;;;;;;;12.85;5.95;;;;;;;-145.33;100.00;60416.63;4965851;28;20046;-23
2023/08/14 06:06:29;;;;;;;11.60;6.32;;;;;;;-145.33;100.00;60416.63;4964780;28;20096;-23
2023/08/14 06:08:55;;;;;;;11.70;6.07;;;;;;;-145.33;100.00;60416.63;4965946;28;20034;-23
2023/08/14 06:11:22;;;;;;;13.45;7.28;;;;;;;-145.33;100.00;60416.63;4966231;28;20040;-24
2023/08/14 06:13:48;;;;;;;8.23;5.43;;;;;;;-145.33;100.00;60416.63;4966417;28;20458;-23
2023/08/14 06:16:13;;;;;;;7.97;4.72;;;;;;;-145.33;100.00;60416.63;4966580;28;20518;-28
2023/08/14 06:18:39;;;;;;;6.72;4.35;;;;;;;-145.33;100.00;60416.63;4966844;28;20030;-25
2023/08/14 06:21:04;;;;;;;6.70;3.92;;;;;;;-145.33;100.00;60416.63;4966631;28;20025;-24
2023/08/14 06:23:29;;;;;;;7.00;4.22;;;;;;;-145.33;100.00;60416.63;4965539;28;20034;-24
2023/08/14 06:25:55;;;;;;;8.63;4.30;;;;;;;-145.33;100.00;60416.63;4966088;28;20019;-24
2023/08/14 06:28:20;;;;;;;5.63;3.80;;;;;;;-145.33;100.00;60416.63;4966789;28;20023;-26
2023/08/14 06:30:46;;;;;;;8.80;4.28;;;;;;;-145.33;100.00;60416.63;4966631;28;20053;-24
2023/08/14 06:33:11;;;;;;;7.65;3.80;;;;;;;-145.33;100.00;60416.63;4966685;28;20039;-24
2023/08/14 06:35:37;;;;;;;6.28;4.18;;;;;;;-145.33;100.00;60416.63;4966647;28;20541;-25
2023/08/14 06:38:02;;;;;;;7.10;3.72;;;;;;;-145.33;100.00;60416.63;4966333;28;20478;-23
2023/08/14 06:40:28;;;;;;;10.13;5.38;;;;;;;-145.33;100.00;60416.63;4966945;28;20470;-24
2023/08/14 06:42:53;;;;;;;6.70;4.15;;;;;;;-145.33;100.00;60416.63;4981494;28;20027;-24
2023/08/14 06:45:21;;;;;;;8.10;4.70;;;;;;;-145.33;100.00;60416.63;4965201;28;20061;-24
2023/08/14 06:47:47;;;;;;;8.45;4.65;;;;;;;-145.33;100.00;60416.63;4968601;28;20093;-26
2023/08/14 06:50:13;;;;;;;8.98;4.35;;;;;;;-145.33;100.00;60416.63;4969203;28;20031;-26
2023/08/14 06:52:39;;;;;;;7.70;4.00;;;;;;;-145.33;100.00;60416.63;4970157;28;20030;-24
2023/08/14 06:55:05;;;;;;;6.45;4.28;;;;;;;-145.33;100.00;60416.63;4970120;28;20026;-23
2023/08/14 06:57:31;;;;;;;7.10;4.10;;;;;;;-145.33;100.00;60416.63;4969833;28;20429;-24
2023/08/14 06:59:56;;;;;;;9.82;5.35;;;;;;;-145.33;100.00;60416.63;4970123;28;20481;-24
2023/08/14 07:02:24;;;;;;;6.97;4.40;;;;;;;-145.33;100.00;60416.63;4969934;28;20019;-23
2023/08/14 07:04:50;;;;;;;7.97;4.20;;;;;;;-145.33;100.00;60416.63;4970318;28;20031;-23
2023/08/14 07:07:16;;;;;;;6.88;4.13;;;;;;;-145.33;100.00;60416.63;4969713;28;20097;-23
2023/08/14 07:09:44;;;;;;;8.05;4.72;;;;;;;-145.33;100.00;60416.63;4970379;28;20042;-24
2023/08/14 07:12:09;;;;;;;6.63;4.18;;;;;;;-145.33;100.00;60416.63;4970056;28;20038;-24
2023/08/14 07:14:34;;;;;;;7.68;4.80;;;;;;;-145.33;100.00;60416.63;4969582;28;20500;-24
2023/08/14 07:17:00;;;;;;;9.05;5.00;;;;;;;-145.33;100.00;60416.63;4970169;28;20038;-24
2023/08/14 07:19:25;;;;;;;11.07;5.65;;;;;;;-145.33;100.00;60416.63;4969674;28;20062;-25
2023/08/14 07:21:51;;;;;;;7.05;3.92;;;;;;;-145.33;100.00;60416.63;4969756;28;20066;-23
2023/08/14 07:24:24;;;;;;;15.70;7.15;;;;;;;-145.33;100.00;60416.63;4969829;28;20030;-24
2023/08/14 07:26:49;;;;;;;7.80;5.07;;;;;;;-145.33;100.00;60416.63;4969493;28;20037;-24
2023/08/14 07:29:15;;;;;;;9.75;4.40;;;;;;;-145.33;100.00;60416.63;4969666;28;20031;-25
2023/08/14 07:31:40;;;;;;;7.47;4.25;;;;;;;-145.33;100.00;60416.63;4969757;28;20035;-23
2023/08/14 07:34:06;;;;;;;7.18;4.63;;;;;;;-145.33;100.00;60416.63;4969410;28;20054;-23
2023/08/14 07:36:31;;;;;;;7.15;4.70;;;;;;;-145.33;100.00;60416.63;4969730;28;20113;-24
2023/08/14 07:38:56;;;;;;;7.25;4.10;;;;;;;-145.33;100.00;60416.63;4969520;28;20039;-24
2023/08/14 07:41:22;;;;;;;6.85;3.95;;;;;;;-145.33;100.00;60416.63;4969037;28;20134;-25
2023/08/14 07:43:47;;;;;;;7.90;3.90;;;;;;;-145.33;100.00;60416.63;4969261;28;20510;-24
2023/08/14 07:46:13;;;;;;;6.55;3.42;;;;;;;-145.33;100.00;60416.63;4969515;28;20470;-24
2023/08/14 07:48:38;;;;;;;6.30;4.07;;;;;;;-145.33;100.00;60416.63;4969455;28;20108;-24
2023/08/14 07:51:03;;;;;;;10.95;6.50;;;;;;;-145.33;100.00;60416.63;4968949;28;20071;-25
2023/08/14 07:53:29;;;;;;;8.85;4.88;;;;;;;-145.33;100.00;60416.63;4969056;28;20023;-24
2023/08/14 07:55:54;;;;;;;6.55;3.63;;;;;;;-145.33;100.00;60416.63;4968851;28;20417;-23
2023/08/14 07:58:20;;;;;;;5.57;3.38;;;;;;;-145.33;100.00;60416.63;4967897;28;20054;-23
2023/08/14 08:00:48;;;;;;;7.32;2.95;;;;;;;-145.33;100.00;60416.63;4969178;28;20034;-24
2023/08/14 08:03:14;;;;;;;6.40;3.50;;;;;;;-145.33;100.00;60416.63;4969086;28;20022;-27
2023/08/14 08:05:39;;;;;;;8.30;3.72;;;;;;;-145.33;100.00;60416.63;4969082;28;20030;-23
2023/08/14 08:08:05;;;;;;;5.78;3.40;;;;;;;-145.33;100.00;60416.63;4968582;28;20038;-24
2023/08/14 08:10:30;;;;;;;5.63;3.10;;;;;;;-145.33;100.00;60416.63;4968370;28;20505;-23
2023/08/14 08:12:56;;;;;;;4.32;3.10;;;;;;;-145.33;100.00;60416.63;4968810;28;20023;-23
2023/08/14 08:15:21;;;;;;;6.53;3.67;;;;;;;-145.33;100.00;60416.63;4968729;28;20054;-23
2023/08/14 08:17:49;;;;;;;4.47;3.03;;;;;;;-145.33;100.00;60416.63;4968422;28;20038;-23
2023/08/14 08:20:20;;;;;;;;;;;;;;;-145.33;100.00;60416.63;4969348;28;20504;-24
2023/08/14 08:22:45;;;;;;;8.07;3.10;;;;;;;-145.33;100.00;60416.63;4968389;28;20081;-25
2023/08/14 08:25:11;;;;;;;7.93;3.30;;;;;;;-145.33;100.00;60416.63;4969091;28;20221;-23
2023/08/14 08:27:36;;;;;;;5.68;2.92;;;;;;;-145.33;100.00;60416.63;4968689;28;20066;-23
2023/08/14 08:30:02;;;;;;;4.68;2.83;;;;;;;-145.33;100.00;60416.63;4968081;28;20025;-24
2023/08/14 08:32:27;;;;;;;4.85;3.00;;;;;;;-145.33;100.00;60416.63;4968685;28;20601;-23
2023/08/14 08:34:54;;;;;;;5.65;2.75;;;;;;;-145.33;100.00;60416.63;4967998;28;20046;-24
2023/08/14 08:37:20;;;;;;;7.18;3.10;;;;;;;-145.33;100.00;60416.63;4968536;28;20027;-24
2023/08/14 08:39:45;;;;;;;4.10;2.90;;;;;;;-145.33;100.00;60416.63;4968227;28;20072;-24
2023/08/14 08:42:12;;;;;;;4.43;3.00;;;;;;;-145.33;100.00;60416.63;4968495;28;20126;-24
2023/08/14 08:44:43;;;;;;;5.85;3.05;;;;;;;-145.33;100.00;60416.63;4968607;28;20031;-24
2023/08/14 08:47:13;;;;;;;4.18;3.00;;;;;;;-145.33;100.00;60416.63;4968020;28;20035;-23
2023/08/14 08:49:40;;;;;;;6.30;3.13;;;;;;;-145.33;100.00;60416.63;4968202;28;20031;-24
2023/08/14 08:52:07;;;;;;;4.22;2.90;;;;;;;-145.33;100.00;60416.63;4967712;28;20026;-25
2023/08/14 08:54:33;;;;;;;6.10;3.40;;;;;;;-145.33;100.00;60416.63;4968027;28;20051;-24
2023/08/14 08:57:00;;;;;;;8.10;4.72;;;;;;;-145.33;100.00;60416.63;4968100;28;20053;-24
2023/08/14 08:59:28;;;;;;;5.57;3.50;;;;;;;-145.33;100.00;60416.63;4968079;28;20025;-23
2023/08/14 09:01:54;;;;;;;5.13;2.90;;;;;;;-145.33;100.00;60416.63;4967496;28;20034;-23
2023/08/14 09:04:19;;;;;;;6.00;3.13;;;;;;;-145.33;100.00;60416.63;4967880;28;20046;-24
2023/08/14 09:06:45;;;;;;;5.75;3.22;;;;;;;-145.33;100.00;60416.63;4967351;28;20042;-23
2023/08/14 09:09:15;;;;;;;8.82;4.05;;;;;;;-145.33;100.00;60416.63;4968294;28;20031;-23
2023/08/14 09:11:43;;;;;;;4.80;3.03;;;;;;;-145.33;100.00;60416.63;4967634;28;20084;-35
2023/08/14 09:14:09;;;;;;;4.80;2.63;;;;;;;-145.33;100.00;60416.63;4967928;28;20033;-24
2023/08/14 09:16:34;;;;;;;5.15;2.90;;;;;;;-145.33;100.00;60416.63;4967753;28;20035;-24
2023/08/14 09:19:00;;;;;;;4.72;2.75;;;;;;;-145.33;100.00;60416.63;4967631;28;20031;-24
2023/08/14 09:21:29;;;;;;;6.55;3.67;;;;;;;-145.33;100.00;60416.63;4967614;28;20038;-24
2023/08/14 09:23:55;;;;;;;6.25;3.22;;;;;;;-145.33;100.00;60416.63;4967521;28;20093;-24
2023/08/14 09:26:21;;;;;;;5.95;3.00;;;;;;;-145.33;100.00;60416.63;4967244;28;20026;-24
2023/08/14 09:28:47;;;;;;;4.72;3.20;;;;;;;-145.33;100.00;60416.63;4967377;28;20093;-23
2023/08/14 09:31:16;;;;;;;4.47;3.00;;;;;;;-145.33;100.00;60416.63;4967536;28;20118;-29
2023/08/14 09:33:43;;;;;;;7.82;3.70;;;;;;;-145.33;100.00;60416.63;4968067;28;20499;-29
2023/08/14 09:36:09;;;;;;;8.35;3.10;;;;;;;-145.33;100.00;60416.63;4967377;28;20034;-25
2023/08/14 09:38:36;;;;;;;7.82;3.20;;;;;;;-145.33;100.00;60416.63;4967355;28;20040;-25
2023/08/14 09:41:02;;;;;;;5.95;3.30;;;;;;;-145.33;100.00;60416.63;4967451;28;20019;-24
2023/08/14 09:43:29;;;;;;;7.03;3.92;;;;;;;-145.33;100.00;60416.63;4967083;28;20532;-24
2023/08/14 09:46:00;;;;;;;5.00;3.15;;;;;;;-145.33;100.00;60416.63;4967214;28;20074;-24
2023/08/14 09:48:46;;;;;;;9.35;3.40;;;;;;;-145.33;100.00;60416.63;4966979;28;20026;-24
2023/08/14 09:51:13;;;;;;;4.75;2.90;;;;;;;-145.33;100.00;60416.63;4966915;28;20061;-24
2023/08/14 09:53:45;;;;;;;6.28;3.00;;;;;;;-145.33;100.00;60416.63;4967589;28;20117;-24
2023/08/14 09:56:14;;;;;;;5.93;3.10;;;;;;;-145.33;100.00;60416.63;4967134;28;20035;-24
2023/08/14 09:58:40;;;;;;;6.30;3.03;;;;;;;-145.33;100.00;60416.63;4967295;28;20019;-24
2023/08/14 10:01:07;;;;;;;6.30;3.17;;;;;;;-145.33;100.00;60416.63;4966699;28;20037;-23
2023/08/14 10:03:34;;;;;;;4.47;3.00;;;;;;;-145.33;100.00;60416.63;4966949;28;20058;-24
2023/08/14 10:06:01;;;;;;;4.55;3.13;;;;;;;-145.33;100.00;60416.63;4966599;28;20059;-24
2023/08/14 10:08:35;;;;;;;5.10;2.92;;;;;;;-145.33;100.00;60416.63;4966689;28;20128;-27
2023/08/14 10:11:04;;;;;;;5.50;3.50;;;;;;;-145.33;100.00;60416.63;4967118;28;20517;-24
2023/08/14 10:13:32;;;;;;;5.50;3.20;;;;;;;-145.33;100.00;60416.63;4966753;28;20041;-24
2023/08/14 10:16:02;;;;;;;4.18;3.15;;;;;;;-145.33;100.00;60416.63;4966529;28;20565;-27
2023/08/14 10:18:29;;;;;;;5.75;3.50;;;;;;;-145.33;100.00;60416.63;4966804;28;20030;-24
2023/08/14 10:20:59;;;;;;;5.60;3.00;;;;;;;-145.33;100.00;60416.63;4966833;28;20034;-24
2023/08/14 10:23:25;;;;;;;4.80;3.40;;;;;;;-145.33;100.00;60416.63;4970439;28;20033;-27
2023/08/14 10:25:52;;;;;;;7.95;3.60;;;;;;;-145.33;100.00;60416.63;4970664;28;20022;-22
2023/08/14 10:28:20;;;;;;;7.18;3.53;;;;;;;-145.33;100.00;60416.63;4970726;28;20483;-23
2023/08/14 10:30:46;;;;;;;11.90;4.25;;;;;;;-145.33;100.00;60416.63;4970710;28;20058;-23
2023/08/14 10:33:13;;;;;;;9.23;3.33;;;;;;;-145.33;100.00;60416.63;4970874;28;20054;-23
2023/08/14 10:35:55;;;;;;;5.78;3.53;;;;;;;-145.33;100.00;60416.63;4970999;28;20495;-24
2023/08/14 10:38:24;;;;;;;6.00;3.30;;;;;;;-145.33;100.00;60416.63;4970506;28;20085;-23
2023/08/14 10:40:55;;;;;;;4.63;3.13;;;;;;;-145.33;100.00;60416.63;4970673;28;20081;-23
2023/08/14 10:43:28;;;;;;;4.57;3.13;;;;;;;-145.33;100.00;60416.63;4970585;28;20058;-23
2023/08/14 10:45:54;;;;;;;5.20;3.50;;;;;;;-145.33;100.00;60416.63;4970335;28;20034;-23
2023/08/14 10:48:20;;;;;;;9.18;3.30;;;;;;;-145.33;100.00;60416.63;4970107;28;20023;-24
2023/08/14 10:50:58;;;;;;;5.77;3.50;;;;;;;-145.33;100.00;60416.63;4970520;28;20045;-24
2023/08/14 10:53:24;;;;;;;8.10;3.83;;;;;;;-145.33;100.00;60416.63;4970119;28;20274;-27
2023/08/14 10:55:49;;;;;;;5.30;3.60;;;;;;;-145.33;100.00;60416.63;4970661;28;20038;-23
2023/08/14 10:58:35;;;;;;;6.38;3.88;;;;;;;-145.33;100.00;60416.63;4970205;28;20113;-24
2023/08/14 11:01:01;;;;;;;9.75;4.03;;;;;;;-145.33;100.00;60416.63;4970409;28;20035;-27
2023/08/14 11:03:27;;;;;;;6.57;4.10;;;;;;;-145.33;100.00;60416.63;4969602;28;20035;-24